METAR rapporten vliegvelden

   
EHVK - Volkel Rnlafb, Netherlands
Afstand tot: ZW 18 km
Gewijzigd: 28-01-2021 10:25
Light Showers, Regen, Bewolking  
Light Showers, Regen, Bewolking  
   Wind: Oosten 14.8 km/h
Wind: Oosten 14.8 km/h
Temperatuur: 5°C
Voelt als: 2°C
Dauwpunt: 5°C
Vochtigheid: 100%
Barometer: 1000 hPa
Bewolking: Bewolking
Zicht: 8 km
Bewolking: Grotendeels bewolkt 300 ft,
Bewolking 400 ft
EHVK 280925Z AUTO 09008KT 070V130 8000 -SHRA BKN003 OVC004 05/05 Q1000 YLO TEMPO 4500 DZRA SCT002 OVC005
EDLV - Niederrhein, Germany
Afstand tot: ZO 25 km
Gewijzigd: 25-01-2021 23:50
Verouderd
Grotendeels bewolkt  
Grotendeels bewolkt  
   Wind: WZW 20.4 km/h
Wind: WZW 20.4 km/h
Temperatuur: 3°C
Voelt als: -2°C
Dauwpunt: 1°C
Vochtigheid: 87%
Barometer: 1009 hPa
Bewolking: Grotendeels bewolkt
Zicht: meer dan 10 km
Bewolking: Grotendeels bewolkt 1500 ft
EDLV 252250Z 24011KT 9999 BKN015 03/01 Q1009
EHDL - Deelen Rnlafb, Netherlands
Afstand tot: N 35 km
Gewijzigd: 28-01-2021 10:25
Light Showers, Regen, Grotendeels bewolkt  
Light Showers, Regen, Grotendeels bewolkt  
   Wind: Oosten 9.3 km/h
Wind: Oosten 9.3 km/h
Temperatuur: 5°C
Voelt als: 3°C
Dauwpunt: 5°C
Vochtigheid: 100%
Barometer: 1001 hPa
Bewolking: Grotendeels bewolkt
Zicht: meer dan 10 km
Bewolking: Licht bewolkt 300 ft,
Gedeeltelijk bewolkt 500 ft,
Grotendeels bewolkt 600 ft
EHDL 280925Z AUTO 09005KT 020V160 9999 -SHRA FEW003 SCT005 BKN006 05/05 Q1001 YLO
EHEH - Eindhoven Rnlafb, Netherlands
Afstand tot: ZW 48 km
Gewijzigd: 28-01-2021 10:29
Light Showers, Regen, Bewolking  
Light Showers, Regen, Bewolking  
   Wind: Oosten 11.1 km/h
Wind: Oosten 11.1 km/h
Temperatuur: 6°C
Voelt als: 4°C
Dauwpunt: 6°C
Vochtigheid: 100%
Barometer: 1000 hPa
Bewolking: Bewolking
Zicht: 6 km
Bewolking: Gedeeltelijk bewolkt 200 ft,
Grotendeels bewolkt 400 ft,
Bewolking 600 ft
EHEH 280929Z AUTO 09006KT 6000 -SHRA SCT002 BKN004 OVC006 06/06 Q1000 AMB TEMPO 3000 DZRA SCT002 BKN003
EHGR - Gilze-Rijen Rnla, Netherlands
Afstand tot: WZW 70 km
Gewijzigd: 28-01-2021 10:25
Light Showers, Regen, Grotendeels bewolkt  
Light Showers, Regen, Grotendeels bewolkt  
   Wind: Oosten 13 km/h
Wind: Oosten 13 km/h
Temperatuur: 6°C
Voelt als: 3°C
Dauwpunt: 6°C
Vochtigheid: 100%
Barometer: 999 hPa
Bewolking: Grotendeels bewolkt
Zicht: meer dan 10 km
Bewolking: Licht bewolkt 300 ft,
Gedeeltelijk bewolkt 400 ft,
Grotendeels bewolkt 1000 ft
EHGR 280925Z AUTO 10007KT 070V130 9999 -SHRA FEW003 SCT004 BKN010 06/06 Q0999 YLO TEMPO 4000 RA SCT002 BKN004
EBBL - Kleine-Brogel(Ba, Belgium
Afstand tot: ZZW 71 km
Gewijzigd: 28-01-2021 09:55
Wat regen mogelijk, Grotendeels bewolkt  
Wat regen mogelijk, Grotendeels bewolkt  
   Wind: varieert 3.7 km/h
Wind: varieert 3.7 km/h
Temperatuur: 5°C
Dauwpunt: 5°C
Vochtigheid: 100%
Barometer: 1000 hPa
Bewolking: Grotendeels bewolkt
Zicht: 3 km
Bewolking: Grotendeels bewolkt 400 ft,
Grotendeels bewolkt 700 ft
EBBL 280855Z VRB02KT 2500 -RA BKN004 BKN007 05/05 Q1000 YLO YLO TEMPO AMB

Script ontwikkeld door  Saratoga-weather.org Aangepast voor de template door  Weerstation Leuven